.
WxDataArchive / Data Records for 2011-05-23
2011-05-22 May 2011 2011-05-24

Data Records for Monday, 23 May 2011

Time	Temp	Chill	HIndex	Humid	Dewpt	 Wind 	HiWind	WindDir	Rain 	Barom 
-----	----	-----	------	-----	-----	------	------	-------	-----	----- 
00:00	61.8	61.8	61.8	91	59.1	1	4	112	0.00	29.738 
00:05	62.0	62.0	62.0	90	59.0	1	3	112	0.00	29.738 
00:10	62.0	62.0	62.0	90	59.0	1	4	112	0.00	29.738 
00:15	62.0	62.0	62.0	89	58.7	1	3	112	0.00	29.736 
00:20	62.1	62.1	62.1	89	58.8	0	3	112	0.00	29.736 
00:25	62.1	62.1	62.1	88	58.5	1	2	112	0.00	29.736 
00:30	62.3	62.3	62.3	88	58.7	1	4	112	0.00	29.732 
00:35	62.6	62.6	62.6	88	59.0	1	3	112	0.00	29.732 
00:40	62.9	62.9	62.9	88	59.3	1	3	112	0.00	29.732 
00:45	63.1	63.1	63.1	88	59.5	1	6	112	0.00	29.741 
00:50	63.4	63.4	63.4	87	59.5	1	4	112	0.00	29.741 
00:55	63.4	63.4	63.4	88	59.8	1	5	112	0.00	29.741 
01:00	63.5	63.5	63.5	88	59.9	1	5	90	0.00	29.717 
01:05	63.5	63.5	63.5	88	59.9	2	5	90	0.00	29.717 
01:10	63.5	63.5	63.5	88	59.9	1	4	135	0.00	29.717 
01:15	63.5	63.5	63.5	88	59.9	1	4	135	0.00	29.700 
01:20	63.5	63.5	63.5	89	60.2	1	4	112	0.00	29.700 
01:25	63.7	63.7	63.7	89	60.4	2	7	112	0.00	29.700 
01:30	63.9	63.9	63.9	90	60.9	1	3	158	0.00	29.691 
01:35	64.0	64.0	64.0	90	61.0	1	4	90	0.00	29.691 
01:40	64.3	64.3	64.3	91	61.6	1	3	90	0.00	29.691 
01:45	64.7	64.7	64.7	91	62.0	0	2	45	0.00	29.684 
01:50	65.0	65.0	65.0	91	62.3	1	3	45	0.00	29.684 
01:55	65.3	65.3	65.3	92	62.9	2	7	90	0.00	29.684 
02:00	65.6	65.6	65.6	91	62.9	1	5	90	0.00	29.681 
02:05	65.8	65.8	65.8	91	63.1	1	3	292	0.00	29.681 
02:10	65.8	65.8	65.8	91	63.1	0	3	292	0.00	29.681 
02:15	66.0	66.0	66.0	91	63.3	0	2	292	0.00	29.680 
02:20	66.0	66.0	66.0	91	63.3	0	3	68	0.00	29.680 
02:25	66.1	66.1	66.1	91	63.4	1	4	68	0.00	29.680 
02:30	66.1	66.1	66.1	91	63.4	0	2	68	0.00	29.674 
02:35	66.3	66.3	66.3	91	63.6	0	3	225	0.00	29.674 
02:40	66.3	66.3	66.3	91	63.6	1	4	22	0.00	29.674 
02:45	66.4	66.4	66.4	91	63.7	0	3	112	0.00	29.664 
02:50	66.4	66.4	66.4	91	63.7	0	3	112	0.00	29.664 
02:55	66.6	66.6	66.6	91	63.9	1	3	112	0.00	29.664 
03:00	66.6	66.6	66.6	91	63.9	1	4	90	0.00	29.653 
03:05	66.8	66.8	66.8	91	64.1	0	2	90	0.00	29.653 
03:10	66.8	66.8	66.8	91	64.1	0	1	90	0.00	29.653 
03:15	66.8	66.8	66.8	91	64.1	1	4	90	0.00	29.642 
03:20	66.9	66.9	66.9	90	63.9	1	4	112	0.00	29.642 
03:25	67.1	67.1	67.1	90	64.1	1	3	90	0.00	29.642 
03:30	67.3	67.3	67.3	89	63.9	1	4	90	0.00	29.640 
03:35	67.4	67.4	67.4	88	63.7	1	5	90	0.00	29.640 
03:40	67.4	67.4	67.4	88	63.7	1	4	90	0.00	29.640 
03:45	67.6	67.6	67.6	87	63.6	0	3	90	0.00	29.631 
03:50	67.6	67.6	67.6	87	63.6	0	2	90	0.00	29.631 
03:55	67.6	67.6	67.6	87	63.6	0	3	225	0.00	29.631 
04:00	67.4	67.4	67.4	86	63.1	1	7	225	0.00	29.655 
04:05	67.6	67.6	67.6	86	63.3	1	3	292	0.00	29.655 
04:10	67.8	67.8	67.8	85	63.1	2	5	248	0.00	29.655 
04:15	67.9	67.9	67.9	84	62.9	1	5	248	0.00	29.661 
04:20	67.8	67.8	67.8	86	63.5	0	5	292	0.01	29.661 
04:25	67.3	67.3	67.3	87	63.3	1	4	292	0.00	29.661 
04:30	66.9	66.9	66.9	88	63.2	0	2	292	0.00	29.660 
04:35	66.4	66.4	66.4	89	63.1	0	1	292	0.01	29.660 
04:40	66.3	66.3	66.3	89	63.0	0	2	292	0.00	29.660 
04:45	66.0	66.0	66.0	90	63.0	0	1	292	0.00	29.658 
04:50	65.8	65.8	65.8	90	62.8	0	1	292	0.00	29.658 
04:55	65.6	65.6	65.6	91	62.9	0	2	292	0.00	29.658 
05:00	65.6	65.6	65.6	91	62.9	1	3	292	0.00	29.647 
05:05	65.5	65.5	65.5	91	62.8	0	4	270	0.00	29.647 
05:10	65.5	65.5	65.5	91	62.8	0	1	270	0.00	29.647 
05:15	65.3	65.3	65.3	92	62.9	1	4	270	0.00	29.649 
05:20	65.3	65.3	65.3	91	62.6	0	2	270	0.00	29.649 
05:25	65.2	65.2	65.2	91	62.5	0	3	270	0.00	29.649 
05:30	65.2	65.2	65.2	91	62.5	0	2	270	0.00	29.642 
05:35	65.2	65.2	65.2	91	62.5	0	1	270	0.00	29.642 
05:40	65.2	65.2	65.2	91	62.5	0	4	270	0.00	29.642 
05:45	65.0	65.0	65.0	91	62.3	0	3	270	0.00	29.633 
05:50	65.0	65.0	65.0	91	62.3	0	1	270	0.00	29.633 
05:55	65.0	65.0	65.0	91	62.3	0	3	292	0.00	29.633 
06:00	65.2	65.2	65.2	91	62.5	0	1	292	0.00	29.634 
06:05	65.0	65.0	65.0	91	62.3	0	4	248	0.00	29.634 
06:10	65.0	65.0	65.0	91	62.3	0	4	315	0.00	29.634 
06:15	65.0	65.0	65.0	91	62.3	0	3	315	0.00	29.640 
06:20	65.0	65.0	65.0	91	62.3	0	2	248	0.00	29.640 
06:25	65.0	65.0	65.0	91	62.3	0	2	248	0.00	29.640 
06:30	65.0	65.0	65.0	91	62.3	0	1	248	0.00	29.636 
06:35	65.0	65.0	65.0	91	62.3	0	3	248	0.00	29.636 
06:40	65.0	65.0	65.0	91	62.3	0	2	315	0.00	29.636 
06:45	65.2	65.2	65.2	91	62.5	1	3	270	0.00	29.648 
06:50	65.2	65.2	65.2	91	62.5	1	4	270	0.00	29.648 
06:55	65.5	65.5	65.5	91	62.8	0	3	248	0.00	29.648 
07:00	65.6	65.6	65.6	91	62.9	1	4	248	0.00	29.650 
07:05	65.8	65.8	65.8	91	63.1	1	5	248	0.00	29.650 
07:10	66.0	66.0	66.0	90	63.0	0	4	270	0.00	29.650 
07:15	66.0	66.0	66.0	90	63.0	0	2	270	0.00	29.651 
07:20	66.0	66.0	66.0	90	63.0	1	3	270	0.00	29.651 
07:25	66.3	66.3	66.3	89	63.0	1	3	270	0.00	29.651 
07:30	66.4	66.4	66.4	89	63.1	1	5	270	0.00	29.661 
07:35	66.8	66.8	66.8	88	63.1	1	5	248	0.00	29.661 
07:40	67.1	67.1	67.1	88	63.4	1	5	292	0.00	29.661 
07:45	67.4	67.4	67.4	87	63.4	1	3	292	0.00	29.663 
07:50	67.4	67.4	67.4	86	63.1	1	3	292	0.00	29.663 
07:55	67.4	67.4	67.4	86	63.1	1	4	248	0.00	29.663 
08:00	67.4	67.4	67.4	85	62.7	1	4	248	0.00	29.665 
08:05	67.6	67.6	67.6	85	62.9	1	3	248	0.00	29.665 
08:10	67.8	67.8	67.8	85	63.1	1	3	248	0.00	29.665 
08:15	68.1	68.1	68.1	84	63.1	1	5	270	0.00	29.673 
08:20	68.4	68.4	68.4	83	63.0	1	3	270	0.00	29.673 
08:25	68.4	68.4	68.4	83	63.0	1	3	338	0.00	29.673 
08:30	68.4	68.4	68.4	82	62.7	1	5	270	0.00	29.674 
08:35	68.6	68.6	68.6	81	62.5	1	7	225	0.00	29.674 
08:40	68.6	68.6	68.6	81	62.5	1	4	292	0.00	29.674 
08:45	69.1	69.1	69.1	81	63.0	1	3	270	0.00	29.677 
08:50	69.4	69.4	69.4	80	63.0	2	6	248	0.00	29.677 
08:55	69.4	69.4	69.4	79	62.6	1	3	270	0.00	29.677 
09:00	69.4	69.4	69.4	79	62.6	1	4	270	0.00	29.676 
09:05	69.4	69.4	69.4	79	62.6	1	6	248	0.00	29.676 
09:10	69.6	69.6	69.6	78	62.4	1	5	248	0.00	29.676 
09:15	69.8	69.8	69.8	78	62.6	2	7	270	0.00	29.678 
09:20	69.8	69.8	69.8	77	62.3	2	5	270	0.00	29.678 
09:25	69.8	69.8	69.8	77	62.3	1	4	338	0.00	29.678 
09:30	70.1	70.1	70.1	77	62.5	2	6	315	0.00	29.680 
09:35	70.6	70.6	70.6	76	62.7	2	5	270	0.00	29.680 
09:40	70.6	70.6	70.6	74	61.9	3	5	248	0.00	29.680 
09:45	70.9	70.9	70.9	75	62.6	1	5	248	0.00	29.681 
09:50	71.1	71.1	71.1	74	62.4	2	7	270	0.00	29.681 
09:55	71.3	71.3	71.3	74	62.6	2	6	270	0.00	29.681 
10:00	71.5	71.5	71.5	72	62.0	3	10	270	0.00	29.687 
10:05	71.6	71.6	71.6	72	62.1	3	6	270	0.00	29.687 
10:10	71.5	71.5	71.5	72	62.0	4	7	248	0.00	29.687 
10:15	70.9	70.9	70.9	72	61.4	3	6	270	0.00	29.684 
10:20	70.8	70.8	70.8	75	62.5	2	7	248	0.00	29.684 
10:25	71.3	71.3	71.3	73	62.2	3	8	270	0.00	29.684 
10:30	71.8	71.8	71.8	73	62.7	3	7	270	0.00	29.678 
10:35	72.5	72.5	72.5	73	63.3	2	6	270	0.00	29.678 
10:40	72.5	72.5	72.5	71	62.5	3	6	270	0.00	29.678 
10:45	72.7	72.7	72.7	72	63.1	3	7	270	0.00	29.677 
10:50	72.7	72.7	72.7	72	63.1	3	6	248	0.00	29.677 
10:55	72.3	72.3	72.3	72	62.8	3	6	248	0.00	29.677 
11:00	72.3	72.3	72.3	73	63.1	2	5	270	0.00	29.693 
11:05	72.3	72.3	72.3	72	62.8	3	7	248	0.00	29.693 
11:10	72.3	72.3	72.3	73	63.1	3	7	248	0.00	29.693 
11:15	72.8	72.8	72.8	73	63.6	2	4	248	0.00	29.690 
11:20	73.2	73.2	73.2	71	63.2	3	9	248	0.00	29.690 
11:25	73.7	73.7	73.7	72	64.1	2	5	248	0.00	29.690 
11:30	74.2	74.2	74.2	70	63.8	2	6	292	0.00	29.684 
11:35	74.6	74.6	74.6	69	63.7	3	7	292	0.00	29.684 
11:40	75.1	75.1	76.8	70	64.6	1	4	248	0.00	29.684 
11:45	75.4	75.4	77.3	67	63.7	2	5	270	0.00	29.681 
11:50	75.4	75.4	77.3	66	63.2	3	6	248	0.00	29.681 
11:55	75.6	75.6	77.4	67	63.9	3	7	248	0.00	29.681 
12:00	75.8	75.8	77.7	65	63.2	3	6	270	0.00	29.676 
12:05	76.1	76.1	78.0	64	63.0	3	10	270	0.00	29.676 
12:10	76.5	76.5	78.3	65	63.8	3	5	248	0.00	29.676 
12:15	76.7	76.7	78.5	63	63.1	3	7	248	0.00	29.670 
12:20	76.7	76.7	78.5	64	63.6	3	6	248	0.00	29.670 
12:25	76.8	76.8	78.6	63	63.2	3	7	248	0.00	29.670 
12:30	77.2	77.2	79.0	62	63.2	3	7	270	0.00	29.667 
12:35	77.4	77.4	79.2	62	63.3	2	5	248	0.00	29.667 
12:40	77.9	77.9	79.6	62	63.8	3	10	248	0.00	29.667 
12:45	78.3	78.3	80.0	61	63.7	2	6	270	0.00	29.658 
12:50	78.5	78.5	80.0	58	62.5	3	7	292	0.00	29.658 
12:55	78.3	78.3	79.9	58	62.3	3	8	292	0.00	29.658 
13:00	78.8	78.8	80.3	58	62.8	3	7	248	0.00	29.652 
13:05	79.0	79.0	80.5	58	62.9	2	5	248	0.00	29.652 
13:10	78.8	78.8	80.3	58	62.8	4	8	248	0.00	29.652 
13:15	79.0	79.0	80.6	59	63.4	3	7	248	0.00	29.641 
13:20	79.6	79.6	81.3	59	64.0	2	6	270	0.00	29.641 
13:25	79.6	79.6	81.0	56	62.5	3	6	248	0.00	29.641 
13:30	79.4	79.4	80.8	56	62.3	4	8	270	0.00	29.637 
13:35	79.8	79.8	81.2	56	62.7	3	6	270	0.00	29.637 
13:40	80.3	80.3	81.7	56	63.1	3	7	248	0.00	29.637 
13:45	80.5	80.5	81.9	56	63.3	2	6	248	0.00	29.637 
13:50	80.3	80.3	81.5	54	62.1	4	10	248	0.00	29.637 
13:55	80.1	80.1	81.4	55	62.4	4	11	270	0.00	29.637 
14:00	80.5	80.5	81.7	54	62.3	3	7	270	0.00	29.632 
14:05	80.9	80.9	81.8	51	61.0	4	10	270	0.00	29.632 
14:10	80.9	80.9	81.8	51	61.0	4	11	270	0.00	29.632 
14:15	81.1	81.1	81.8	50	60.7	4	10	270	0.00	29.627 
14:20	81.2	81.2	81.9	50	60.8	4	9	270	0.00	29.627 
14:25	81.4	81.4	82.1	50	60.9	3	10	248	0.00	29.627 
14:30	81.4	81.4	82.1	50	60.9	4	10	270	0.00	29.617 
14:35	81.6	81.6	82.5	51	61.7	3	6	270	0.00	29.617 
14:40	82.0	82.0	82.5	48	60.3	4	10	270	0.00	29.617 
14:45	82.2	82.2	83.0	50	61.7	4	11	270	0.00	29.617 
14:50	82.4	82.4	82.9	48	60.7	4	11	270	0.00	29.617 
14:55	82.6	82.6	83.3	49	61.5	2	7	248	0.00	29.617 
15:00	82.6	82.6	83.0	47	60.3	3	9	248	0.00	29.611 
15:05	82.8	82.8	83.3	48	61.1	4	10	248	0.00	29.611 
15:10	82.6	82.6	83.0	47	60.3	5	12	270	0.00	29.611 
15:15	82.6	82.6	83.0	47	60.3	4	14	248	0.00	29.610 
15:20	82.2	82.2	82.8	49	61.1	3	7	270	0.00	29.610 
15:25	82.4	82.4	83.0	49	61.3	4	10	270	0.00	29.610 
15:30	82.4	82.4	82.9	48	60.7	4	10	270	0.01	29.615 
15:35	81.2	81.2	81.9	50	60.8	4	10	270	0.00	29.615 
15:40	80.7	80.7	81.4	50	60.3	4	9	248	0.00	29.615 
15:45	80.1	80.1	81.1	52	60.9	3	5	270	0.00	29.619 
15:50	79.8	79.8	80.9	53	61.1	3	7	248	0.00	29.619 
15:55	79.2	79.2	80.4	54	61.1	2	10	248	0.00	29.619 
16:00	78.8	78.8	80.3	58	62.8	2	6	248	0.00	29.618 
16:05	77.6	77.6	79.4	64	64.4	2	7	248	0.01	29.618 
16:10	76.0	76.0	77.8	66	63.8	3	9	248	0.00	29.618 
16:15	75.4	75.4	77.2	68	64.1	2	5	248	0.00	29.625 
16:20	75.8	75.8	77.7	66	63.6	2	5	270	0.00	29.625 
16:25	77.0	77.0	78.8	65	64.3	2	5	270	0.00	29.625 
16:30	77.6	77.6	79.4	62	63.5	2	4	270	0.00	29.620 
16:35	77.7	77.7	79.4	60	62.7	2	5	248	0.00	29.620 
16:40	77.7	77.7	79.4	60	62.7	2	9	292	0.00	29.620 
16:45	77.7	77.7	79.4	59	62.2	3	7	248	0.00	29.620 
16:50	77.7	77.7	79.4	60	62.7	2	7	270	0.00	29.620 
16:55	77.6	77.6	79.3	60	62.6	2	5	248	0.00	29.620 
17:00	77.0	77.0	78.8	63	63.4	2	6	248	0.00	29.626 
17:05	76.3	76.3	78.2	64	63.2	2	6	270	0.01	29.626 
17:10	76.1	76.1	78.0	65	63.5	1	3	248	0.00	29.626 
17:15	75.8	75.8	77.7	66	63.6	1	3	248	0.00	29.626 
17:20	75.4	75.4	77.4	65	62.8	2	6	248	0.00	29.626 
17:25	75.4	75.4	77.4	65	62.8	1	3	270	0.00	29.626 
17:30	75.3	75.3	77.4	64	62.3	1	3	270	0.00	29.630 
17:35	75.1	75.1	77.2	64	62.1	0	2	270	0.00	29.630 
17:40	74.7	74.7	74.7	66	62.6	1	3	270	0.00	29.630 
17:45	74.2	74.2	74.2	69	63.4	1	3	248	0.00	29.639 
17:50	73.5	73.5	73.5	70	63.1	0	2	248	0.00	29.639 
17:55	73.0	73.0	73.0	72	63.4	1	5	270	0.00	29.639 
18:00	72.8	72.8	72.8	73	63.6	2	5	270	0.00	29.634 
18:05	72.3	72.3	72.3	73	63.1	4	7	248	0.00	29.634 
18:10	70.8	70.8	70.8	75	62.5	3	6	248	0.00	29.634 
18:15	69.6	69.6	69.6	77	62.1	2	5	248	0.00	29.644 
18:20	69.1	69.1	69.1	79	62.3	2	6	248	0.00	29.644 
18:25	68.8	68.8	68.8	78	61.7	3	7	270	0.00	29.644 
18:30	68.3	68.3	68.3	77	60.8	4	12	248	0.00	29.651 
18:35	67.8	67.8	67.8	81	61.7	4	11	270	0.01	29.651 
18:40	66.8	66.8	66.8	83	61.5	3	7	248	0.01	29.651 
18:45	66.3	66.3	66.3	84	61.3	2	5	248	0.01	29.627 
18:50	66.4	66.4	66.4	86	62.1	1	5	248	0.00	29.627 
18:55	66.6	66.6	66.6	87	62.6	1	3	248	0.00	29.627 
19:00	67.3	67.3	67.3	87	63.3	2	8	248	0.00	29.623 
19:05	67.8	67.8	67.8	86	63.5	2	6	248	0.00	29.623 
19:10	67.6	67.6	67.6	85	62.9	2	6	338	0.00	29.623 
19:15	67.1	67.1	67.1	85	62.4	1	3	338	0.00	29.628 
19:20	66.8	66.8	66.8	86	62.5	0	2	315	0.00	29.628 
19:25	66.6	66.6	66.6	87	62.6	1	3	315	0.00	29.628 
19:30	66.4	66.4	66.4	88	62.7	1	4	270	0.00	29.648 
19:35	66.3	66.3	66.3	88	62.6	2	5	292	0.00	29.648 
19:40	66.3	66.3	66.3	88	62.6	2	7	270	0.00	29.648 
19:45	66.3	66.3	66.3	88	62.6	2	5	270	0.00	29.647 
19:50	66.4	66.4	66.4	88	62.7	2	5	248	0.00	29.647 
19:55	66.8	66.8	66.8	88	63.1	1	5	270	0.00	29.647 
20:00	66.9	66.9	66.9	87	62.9	2	11	270	0.00	29.644 
20:05	67.4	67.4	67.4	87	63.4	2	6	248	0.00	29.644 
20:10	67.8	67.8	67.8	87	63.8	2	6	270	0.00	29.644 
20:15	68.4	68.4	68.4	86	64.0	4	11	248	0.00	29.644 
20:20	68.8	68.8	68.8	85	64.1	4	9	270	0.00	29.644 
20:25	68.4	68.4	68.4	84	63.4	3	8	248	0.00	29.644 
20:30	68.3	68.3	68.3	82	62.6	2	10	248	0.00	29.641 
20:35	68.4	68.4	68.4	81	62.3	2	4	248	0.00	29.641 
20:40	68.4	68.4	68.4	81	62.3	2	4	248	0.00	29.641 
20:45	68.3	68.3	68.3	81	62.2	1	4	248	0.00	29.654 
20:50	67.9	67.9	67.9	82	62.2	1	4	248	0.00	29.654 
20:55	67.6	67.6	67.6	83	62.2	1	5	248	0.00	29.654 
21:00	67.3	67.3	67.3	84	62.3	1	3	248	0.00	29.663 
21:05	66.9	66.9	66.9	85	62.2	1	2	248	0.00	29.663 
21:10	66.9	66.9	66.9	86	62.6	1	3	248	0.00	29.663 
21:15	66.9	66.9	66.9	87	62.9	1	4	248	0.00	29.659 
21:20	67.1	67.1	67.1	87	63.1	1	4	248	0.00	29.659 
21:25	67.1	67.1	67.1	86	62.8	1	3	248	0.00	29.659 
21:30	67.1	67.1	67.1	86	62.8	1	4	248	0.00	29.667 
21:35	67.1	67.1	67.1	86	62.8	1	4	248	0.00	29.667 
21:40	67.3	67.3	67.3	85	62.6	1	4	248	0.00	29.667 
21:45	67.3	67.3	67.3	84	62.3	1	3	248	0.00	29.678 
21:50	67.4	67.4	67.4	83	62.0	1	2	248	0.00	29.678 
21:55	67.3	67.3	67.3	82	61.6	1	3	248	0.00	29.678 
22:00	67.4	67.4	67.4	81	61.4	1	5	248	0.00	29.682 
22:05	67.6	67.6	67.6	80	61.2	1	4	248	0.00	29.682 
22:10	67.6	67.6	67.6	80	61.2	0	1	248	0.00	29.682 
22:15	67.4	67.4	67.4	79	60.7	0	2	248	0.00	29.686 
22:20	67.3	67.3	67.3	78	60.2	0	1	248	0.00	29.686 
22:25	67.3	67.3	67.3	77	59.8	0	1	248	0.00	29.686 
22:30	67.3	67.3	67.3	77	59.8	0	2	248	0.00	29.686 
22:35	67.1	67.1	67.1	78	60.0	0	1	248	0.00	29.686 
22:40	66.9	66.9	66.9	78	59.8	0	1	248	0.00	29.686 
22:45	66.8	66.8	66.8	78	59.7	0	1	248	0.00	29.697 
22:50	66.6	66.6	66.6	78	59.5	0	1	248	0.00	29.697 
22:55	66.8	66.8	66.8	78	59.7	0	1	248	0.00	29.697 
23:00	66.8	66.8	66.8	78	59.7	0	0	---	0.00	29.705 
23:05	66.6	66.6	66.6	78	59.5	0	1	248	0.00	29.705 
23:10	66.4	66.4	66.4	78	59.3	0	1	248	0.00	29.705 
23:15	66.4	66.4	66.4	78	59.3	0	3	248	0.00	29.706 
23:20	66.4	66.4	66.4	78	59.3	0	1	248	0.00	29.706 
23:25	66.3	66.3	66.3	78	59.2	0	1	248	0.00	29.706 
23:30	66.3	66.3	66.3	78	59.2	1	3	248	0.00	29.703 
23:35	66.1	66.1	66.1	79	59.4	0	1	248	0.00	29.703 
23:40	65.8	65.8	65.8	79	59.1	0	2	248	0.00	29.703 
23:45	65.6	65.6	65.6	79	58.9	1	3	248	0.00	29.703 
23:50	65.5	65.5	65.5	80	59.2	0	2	248	0.00	29.703 
23:55	65.3	65.3	65.3	80	59.0	0	1	248	0.00	29.703 

CoCoRaHS
IN-AL-39
A2 Web Hosting
Creative Commons License
GoDaddy
search engine by freefind advanced

loaded 2018-11-16 01:23:16 • last modified 2010-11-18 10:43:29
Privacy PolicyDisclaimer
• wx.awcolley.com is powered by PmWiki v.2002016 •
• all content (unless otherwise noted) © 2018 A W Colley